createdAt,value
2017-05-23T00:00:08.599Z,0
2017-05-23T00:00:34.690Z,0
2017-05-23T00:01:00.802Z,0
2017-05-23T00:01:26.901Z,0
2017-05-23T00:01:53.068Z,0
2017-05-23T00:02:19.203Z,0
2017-05-23T00:02:45.346Z,0
2017-05-23T00:03:11.511Z,0
2017-05-23T00:03:37.660Z,0
2017-05-23T00:04:03.751Z,0
2017-05-23T00:04:29.863Z,0
2017-05-23T00:04:55.988Z,0
2017-05-23T00:05:22.132Z,0
2017-05-23T00:05:48.261Z,0
2017-05-23T00:06:14.363Z,0
2017-05-23T00:06:40.454Z,0
2017-05-23T00:07:06.559Z,0
2017-05-23T00:07:32.666Z,0
2017-05-23T00:07:58.762Z,0
2017-05-23T00:08:24.917Z,0
2017-05-23T00:08:51.083Z,0
2017-05-23T00:09:17.219Z,0
2017-05-23T00:09:43.345Z,0
2017-05-23T00:10:09.511Z,0
2017-05-23T00:10:35.668Z,0
2017-05-23T00:11:01.776Z,0
2017-05-23T00:11:27.888Z,0
2017-05-23T00:11:54.012Z,0
2017-05-23T00:12:20.122Z,0
2017-05-23T00:12:46.295Z,0
2017-05-23T00:13:12.492Z,0
2017-05-23T00:13:38.623Z,0
2017-05-23T00:14:04.753Z,0
2017-05-23T00:14:30.948Z,0
2017-05-23T00:14:57.090Z,0
2017-05-23T00:15:23.215Z,0
2017-05-23T00:15:49.352Z,0
2017-05-23T00:16:15.444Z,0
2017-05-23T00:16:41.568Z,0
2017-05-23T00:17:07.732Z,0
2017-05-23T00:17:33.826Z,0
2017-05-23T00:17:59.969Z,0
2017-05-23T00:18:26.164Z,0
2017-05-23T00:18:52.322Z,0
2017-05-23T00:19:18.396Z,0
2017-05-23T00:19:44.537Z,0
2017-05-23T00:20:10.661Z,0
2017-05-23T00:20:36.795Z,0
2017-05-23T00:21:02.919Z,0
2017-05-23T00:21:29.038Z,0
2017-05-23T00:21:55.147Z,0
2017-05-23T00:22:21.273Z,0
2017-05-23T00:22:47.391Z,0
2017-05-23T00:23:13.553Z,0
2017-05-23T00:23:39.709Z,0
2017-05-23T00:24:05.874Z,0
2017-05-23T00:24:32.032Z,0
2017-05-23T00:24:58.178Z,0
2017-05-23T00:25:24.312Z,0
2017-05-23T00:25:50.440Z,0
2017-05-23T00:26:16.560Z,0
2017-05-23T00:26:42.666Z,0
2017-05-23T00:27:08.796Z,0
2017-05-23T00:27:34.890Z,0
2017-05-23T00:28:01.070Z,0
2017-05-23T00:28:27.259Z,0
2017-05-23T00:28:53.420Z,0
2017-05-23T00:29:19.545Z,0
2017-05-23T00:29:45.709Z,0
2017-05-23T00:30:11.857Z,0
2017-05-23T00:30:38.015Z,0
2017-05-23T00:31:04.157Z,0
2017-05-23T00:31:30.314Z,0
2017-05-23T00:31:56.477Z,0
2017-05-23T00:32:22.564Z,0
2017-05-23T00:32:48.665Z,0
2017-05-23T00:33:14.858Z,0
2017-05-23T00:33:40.977Z,0
2017-05-23T00:34:07.127Z,0
2017-05-23T00:34:33.317Z,0
2017-05-23T00:34:59.442Z,0
2017-05-23T00:35:25.534Z,0
2017-05-23T00:35:51.641Z,0
2017-05-23T00:36:17.769Z,0
2017-05-23T00:36:43.904Z,0
2017-05-23T00:37:10.022Z,0
2017-05-23T00:37:36.144Z,0
2017-05-23T00:38:02.307Z,0
2017-05-23T00:38:28.401Z,0
2017-05-23T00:38:54.519Z,0
2017-05-23T00:39:20.659Z,0
2017-05-23T00:39:46.812Z,0
2017-05-23T00:40:12.952Z,0
2017-05-23T00:40:39.064Z,0
2017-05-23T00:41:05.189Z,0
2017-05-23T00:41:31.304Z,0
2017-05-23T00:41:57.410Z,0
2017-05-23T00:42:23.518Z,0
2017-05-23T00:42:49.633Z,0
2017-05-23T00:43:15.809Z,0
2017-05-23T00:43:41.971Z,0
2017-05-23T00:44:08.126Z,0
2017-05-23T00:44:34.414Z,0
2017-05-23T00:45:00.551Z,0
2017-05-23T00:45:26.675Z,0
2017-05-23T00:45:52.792Z,0
2017-05-23T00:46:18.927Z,0
2017-05-23T00:46:45.023Z,0
2017-05-23T00:47:11.129Z,0
2017-05-23T00:47:37.271Z,0
2017-05-23T00:48:03.414Z,0
2017-05-23T00:48:29.519Z,0
2017-05-23T00:48:55.637Z,0
2017-05-23T00:49:21.755Z,0
2017-05-23T00:49:47.890Z,0
2017-05-23T00:50:14.043Z,0
2017-05-23T00:50:40.139Z,0
2017-05-23T00:51:06.244Z,0
2017-05-23T00:51:32.374Z,0
2017-05-23T00:51:58.468Z,0
2017-05-23T00:52:24.625Z,0
2017-05-23T00:52:50.766Z,0
2017-05-23T00:53:16.929Z,0
2017-05-23T00:53:43.082Z,0
2017-05-23T00:54:09.210Z,0
2017-05-23T00:54:35.336Z,0
2017-05-23T00:55:01.463Z,0
2017-05-23T00:55:27.553Z,0
2017-05-23T00:55:53.707Z,0
2017-05-23T00:56:19.815Z,0
2017-05-23T00:56:45.903Z,0
2017-05-23T00:57:12.030Z,0
2017-05-23T00:57:38.193Z,0
2017-05-23T00:58:04.337Z,0
2017-05-23T00:58:30.496Z,0
2017-05-23T00:58:56.657Z,0
2017-05-23T00:59:22.809Z,0
2017-05-23T00:59:48.971Z,0
2017-05-23T01:00:15.086Z,0
2017-05-23T01:00:41.188Z,0
2017-05-23T01:01:07.295Z,0
2017-05-23T01:01:33.387Z,0
2017-05-23T01:01:59.485Z,0
2017-05-23T01:02:25.621Z,0
2017-05-23T01:02:51.743Z,0
2017-05-23T01:03:17.884Z,0
2017-05-23T01:03:44.048Z,0
2017-05-23T01:04:10.173Z,0
2017-05-23T01:04:36.337Z,0
2017-05-23T01:05:02.480Z,0
2017-05-23T01:05:28.579Z,0
2017-05-23T01:05:54.715Z,0
2017-05-23T01:06:20.811Z,0
2017-05-23T01:06:46.981Z,0
2017-05-23T01:07:13.119Z,0
2017-05-23T01:07:39.216Z,0
2017-05-23T01:08:05.332Z,0
2017-05-23T01:08:31.493Z,0
2017-05-23T01:08:57.622Z,0
2017-05-23T01:09:23.797Z,0
2017-05-23T01:09:49.917Z,0
2017-05-23T01:10:16.007Z,0
2017-05-23T01:10:42.118Z,0
2017-05-23T01:11:08.242Z,0
2017-05-23T01:11:34.335Z,0
2017-05-23T01:12:00.441Z,0
2017-05-23T01:12:26.543Z,0
2017-05-23T01:12:52.660Z,0
2017-05-23T01:13:18.791Z,0
2017-05-23T01:13:44.926Z,0
2017-05-23T01:14:11.063Z,0
2017-05-23T01:14:37.188Z,0
2017-05-23T01:15:03.312Z,0
2017-05-23T01:15:29.449Z,0
2017-05-23T01:15:55.546Z,0
2017-05-23T01:16:21.641Z,0
2017-05-23T01:16:47.745Z,0
2017-05-23T01:17:13.854Z,0
2017-05-23T01:17:39.943Z,0
2017-05-23T01:18:06.093Z,0
2017-05-23T01:18:32.232Z,0
2017-05-23T01:18:58.322Z,0
2017-05-23T01:19:24.446Z,0
2017-05-23T01:19:50.550Z,0
2017-05-23T01:20:16.644Z,0
2017-05-23T01:20:42.753Z,0
2017-05-23T01:21:08.868Z,0
2017-05-23T01:21:34.994Z,0
2017-05-23T01:22:01.182Z,0
2017-05-23T01:22:27.352Z,0
2017-05-23T01:22:53.449Z,0
2017-05-23T01:23:19.639Z,0
2017-05-23T01:23:45.762Z,0
2017-05-23T01:24:11.879Z,0
2017-05-23T01:24:38.018Z,0
2017-05-23T01:25:04.200Z,0
2017-05-23T01:25:30.318Z,0
2017-05-23T01:25:56.424Z,0
2017-05-23T01:26:22.526Z,0
2017-05-23T01:26:48.616Z,0
2017-05-23T01:27:14.719Z,0
2017-05-23T01:27:40.854Z,0
2017-05-23T01:28:07.023Z,0
2017-05-23T01:28:33.172Z,0
2017-05-23T01:28:59.310Z,0
2017-05-23T01:29:25.496Z,0
2017-05-23T01:29:51.532Z,0
2017-05-23T01:30:17.669Z,0
2017-05-23T01:30:43.764Z,0
2017-05-23T01:31:09.883Z,0
2017-05-23T01:31:36.073Z,0
2017-05-23T01:32:02.223Z,0
2017-05-23T01:32:28.331Z,0
2017-05-23T01:32:54.449Z,0
2017-05-23T01:33:20.566Z,0
2017-05-23T01:33:46.699Z,0
2017-05-23T01:34:12.850Z,0
2017-05-23T01:34:38.991Z,0
2017-05-23T01:35:05.181Z,0
2017-05-23T01:35:31.278Z,0
2017-05-23T01:35:57.371Z,0
2017-05-23T01:36:23.471Z,0
2017-05-23T01:36:49.573Z,0
2017-05-23T01:37:15.672Z,0
2017-05-23T01:37:41.769Z,0
2017-05-23T01:38:07.885Z,0
2017-05-23T01:38:34.048Z,0
2017-05-23T01:39:00.147Z,0
2017-05-23T01:39:26.239Z,0
2017-05-23T01:39:52.375Z,0
2017-05-23T01:40:18.508Z,0
2017-05-23T01:40:44.618Z,0
2017-05-23T01:41:10.721Z,0
2017-05-23T01:41:36.855Z,0
2017-05-23T01:42:02.944Z,0
2017-05-23T01:42:29.047Z,0
2017-05-23T01:42:55.172Z,0
2017-05-23T01:43:21.331Z,0
2017-05-23T01:43:47.487Z,0
2017-05-23T01:44:13.627Z,0
2017-05-23T01:44:39.783Z,0
2017-05-23T01:45:06.015Z,0
2017-05-23T01:45:32.129Z,0
2017-05-23T01:45:58.232Z,0
2017-05-23T01:46:24.369Z,0
2017-05-23T01:46:50.460Z,0
2017-05-23T01:47:16.584Z,0
2017-05-23T01:47:42.717Z,0
2017-05-23T01:48:08.863Z,0
2017-05-23T01:48:34.998Z,0
2017-05-23T01:49:01.165Z,0
2017-05-23T01:49:27.345Z,0
2017-05-23T01:49:53.539Z,0
2017-05-23T01:50:19.681Z,0
2017-05-23T01:50:45.829Z,0
2017-05-23T01:51:11.937Z,0
2017-05-23T01:51:38.030Z,0
2017-05-23T01:52:04.173Z,0
2017-05-23T01:52:30.311Z,0
2017-05-23T01:52:56.439Z,0
2017-05-23T01:53:22.530Z,0
2017-05-23T01:53:48.662Z,0
2017-05-23T01:54:14.757Z,0
2017-05-23T01:54:40.895Z,0
2017-05-23T01:55:07.016Z,0
2017-05-23T01:55:33.106Z,0
2017-05-23T01:55:59.226Z,0
2017-05-23T01:56:25.404Z,0
2017-05-23T01:56:51.494Z,0
2017-05-23T01:57:17.629Z,0
2017-05-23T01:57:43.759Z,0
2017-05-23T01:58:09.923Z,0
2017-05-23T01:58:36.078Z,0
2017-05-23T01:59:02.213Z,0
2017-05-23T01:59:28.334Z,0
2017-05-23T01:59:54.461Z,0
2017-05-23T02:00:20.579Z,0
2017-05-23T02:00:46.719Z,0
2017-05-23T02:01:12.847Z,0
2017-05-23T02:01:38.938Z,0
2017-05-23T02:02:05.043Z,0
2017-05-23T02:02:31.151Z,0
2017-05-23T02:02:57.288Z,0
2017-05-23T02:03:23.413Z,0
2017-05-23T02:03:49.550Z,0
2017-05-23T02:04:15.663Z,0
2017-05-23T02:04:41.785Z,0
2017-05-23T02:05:07.940Z,0
2017-05-23T02:05:34.044Z,0
2017-05-23T02:06:00.151Z,0
2017-05-23T02:06:26.287Z,0
2017-05-23T02:06:52.389Z,0
2017-05-23T02:07:18.551Z,0
2017-05-23T02:07:44.670Z,0
2017-05-23T02:08:10.792Z,0
2017-05-23T02:08:36.928Z,0
2017-05-23T02:09:03.080Z,0
2017-05-23T02:09:29.202Z,0
2017-05-23T02:09:55.335Z,0
2017-05-23T02:10:21.463Z,0
2017-05-23T02:10:47.554Z,0
2017-05-23T02:11:13.681Z,0
2017-05-23T02:11:39.814Z,0
2017-05-23T02:12:05.903Z,0
2017-05-23T02:12:32.033Z,0
2017-05-23T02:12:58.196Z,0
2017-05-23T02:13:24.308Z,0
2017-05-23T02:13:50.438Z,0
2017-05-23T02:14:16.548Z,0
2017-05-23T02:14:42.662Z,0
2017-05-23T02:15:08.788Z,0
2017-05-23T02:15:34.892Z,0
2017-05-23T02:16:00.988Z,0
2017-05-23T02:16:27.117Z,0
2017-05-23T02:16:53.206Z,0
2017-05-23T02:17:19.307Z,0
2017-05-23T02:17:45.442Z,0
2017-05-23T02:18:11.587Z,0
2017-05-23T02:18:37.762Z,0
2017-05-23T02:19:03.955Z,0
2017-05-23T02:19:30.102Z,0
2017-05-23T02:19:56.219Z,0
2017-05-23T02:20:22.330Z,0
2017-05-23T02:20:48.455Z,0
2017-05-23T02:21:14.570Z,0
2017-05-23T02:21:40.698Z,0
2017-05-23T02:22:06.828Z,0
2017-05-23T02:22:32.953Z,0
2017-05-23T02:22:59.076Z,0
2017-05-23T02:23:25.185Z,0
2017-05-23T02:23:51.318Z,0
2017-05-23T02:24:17.446Z,0
2017-05-23T02:24:43.564Z,0
2017-05-23T02:25:09.723Z,0
2017-05-23T02:25:35.825Z,0
2017-05-23T02:26:02.003Z,0
2017-05-23T02:26:28.099Z,0
2017-05-23T02:26:54.207Z,0
2017-05-23T02:27:20.302Z,0
2017-05-23T02:27:46.429Z,0
2017-05-23T02:28:12.570Z,0
2017-05-23T02:28:38.679Z,0
2017-05-23T02:29:04.838Z,0
2017-05-23T02:29:31.041Z,0
2017-05-23T02:29:57.130Z,0
2017-05-23T02:30:23.235Z,0
2017-05-23T02:30:49.352Z,0
2017-05-23T02:31:15.452Z,0
2017-05-23T02:31:41.586Z,0
2017-05-23T02:32:07.678Z,0
2017-05-23T02:32:33.774Z,0
2017-05-23T02:32:59.925Z,0
2017-05-23T02:33:26.030Z,0
2017-05-23T02:33:52.191Z,0
2017-05-23T02:34:18.331Z,0
2017-05-23T02:34:44.455Z,0
2017-05-23T02:35:10.564Z,0
2017-05-23T02:35:36.652Z,0
2017-05-23T02:36:02.748Z,0
2017-05-23T02:36:28.853Z,0
2017-05-23T02:36:54.975Z,0
2017-05-23T02:37:21.116Z,0
2017-05-23T02:37:47.256Z,0
2017-05-23T02:38:13.404Z,0
2017-05-23T02:38:39.509Z,0
2017-05-23T02:39:05.625Z,0
2017-05-23T02:39:31.750Z,0
2017-05-23T02:39:57.909Z,0
2017-05-23T02:40:24.002Z,0
2017-05-23T02:40:50.097Z,0
2017-05-23T02:41:16.264Z,0
2017-05-23T02:41:42.390Z,0
2017-05-23T02:42:08.505Z,0
2017-05-23T02:42:34.609Z,0
2017-05-23T02:43:00.769Z,0
2017-05-23T02:43:26.874Z,0
2017-05-23T02:43:53.029Z,0
2017-05-23T02:44:19.180Z,4
2017-05-23T02:44:45.396Z,4
2017-05-23T02:45:11.551Z,4
2017-05-23T02:45:37.666Z,4
2017-05-23T02:46:03.798Z,4
2017-05-23T02:46:29.898Z,4
2017-05-23T02:46:55.993Z,4
2017-05-23T02:47:22.123Z,4
2017-05-23T02:47:48.261Z,4
2017-05-23T02:48:14.427Z,4
2017-05-23T02:48:40.553Z,0
2017-05-23T02:49:06.715Z,4
2017-05-23T02:49:32.880Z,4
2017-05-23T02:49:59.016Z,4
2017-05-23T02:50:25.133Z,4
2017-05-23T02:50:51.293Z,4
2017-05-23T02:51:17.400Z,4
2017-05-23T02:51:43.490Z,4
2017-05-23T02:52:09.588Z,8
2017-05-23T02:52:35.695Z,8
2017-05-23T02:53:01.814Z,4
2017-05-23T02:53:27.984Z,4
2017-05-23T02:53:54.152Z,4
2017-05-23T02:54:20.300Z,8
2017-05-23T02:54:46.414Z,8
2017-05-23T02:55:12.605Z,8
2017-05-23T02:55:38.703Z,8
2017-05-23T02:56:05.145Z,8
2017-05-23T02:56:31.254Z,8
2017-05-23T02:56:57.381Z,12
2017-05-23T02:57:23.498Z,8
2017-05-23T02:57:49.655Z,12
2017-05-23T02:58:15.763Z,12
2017-05-23T02:58:41.900Z,12
2017-05-23T02:59:08.049Z,12
2017-05-23T02:59:34.211Z,16
2017-05-23T03:00:00.303Z,16
2017-05-23T03:00:26.419Z,16
2017-05-23T03:00:52.517Z,16
2017-05-23T03:01:18.671Z,20
2017-05-23T03:01:44.803Z,20
2017-05-23T03:02:10.915Z,24
2017-05-23T03:02:37.045Z,20
2017-05-23T03:03:03.238Z,20
2017-05-23T03:03:29.384Z,24
2017-05-23T03:03:55.512Z,28
2017-05-23T03:04:21.639Z,28
2017-05-23T03:04:47.761Z,32
2017-05-23T03:05:13.901Z,32
2017-05-23T03:05:40.012Z,32
2017-05-23T03:06:06.166Z,36
2017-05-23T03:06:32.269Z,36
2017-05-23T03:06:58.388Z,40
2017-05-23T03:07:24.509Z,44
2017-05-23T03:07:50.645Z,44
2017-05-23T03:08:16.767Z,48
2017-05-23T03:08:42.912Z,48
2017-05-23T03:09:09.077Z,52
2017-05-23T03:09:35.256Z,56
2017-05-23T03:10:01.346Z,56
2017-05-23T03:10:27.453Z,60
2017-05-23T03:10:53.556Z,60
2017-05-23T03:11:19.674Z,64
2017-05-23T03:11:45.776Z,68
2017-05-23T03:12:11.868Z,72
2017-05-23T03:12:37.979Z,76
2017-05-23T03:13:04.105Z,76
2017-05-23T03:13:30.218Z,80
2017-05-23T03:13:56.326Z,84
2017-05-23T03:14:22.518Z,92
2017-05-23T03:14:48.564Z,92
2017-05-23T03:15:14.667Z,96
2017-05-23T03:15:40.775Z,100
2017-05-23T03:16:06.888Z,104
2017-05-23T03:16:32.989Z,108
2017-05-23T03:16:59.097Z,116
2017-05-23T03:17:25.187Z,116
2017-05-23T03:17:51.357Z,120
2017-05-23T03:18:17.465Z,128
2017-05-23T03:18:43.561Z,132
2017-05-23T03:19:09.725Z,140
2017-05-23T03:19:35.893Z,140
2017-05-23T03:20:02.020Z,148
2017-05-23T03:20:28.136Z,152
2017-05-23T03:20:54.244Z,160
2017-05-23T03:21:20.401Z,164
2017-05-23T03:21:46.516Z,172
2017-05-23T03:22:12.644Z,176
2017-05-23T03:22:38.810Z,184
2017-05-23T03:23:04.905Z,188
2017-05-23T03:23:31.032Z,200
2017-05-23T03:23:57.148Z,204
2017-05-23T03:24:23.304Z,212
2017-05-23T03:24:49.461Z,216
2017-05-23T03:25:15.577Z,224
2017-05-23T03:25:41.705Z,228
2017-05-23T03:26:08.165Z,236
2017-05-23T03:26:34.252Z,240
2017-05-23T03:27:00.378Z,248
2017-05-23T03:27:26.542Z,256
2017-05-23T03:27:52.688Z,260
2017-05-23T03:28:18.786Z,268
2017-05-23T03:28:44.968Z,276
2017-05-23T03:29:11.095Z,284
2017-05-23T03:29:37.203Z,288
2017-05-23T03:30:03.319Z,296
2017-05-23T03:30:29.420Z,304
2017-05-23T03:30:55.580Z,312
2017-05-23T03:31:21.714Z,316
2017-05-23T03:31:47.793Z,324
2017-05-23T03:32:13.901Z,336
2017-05-23T03:32:40.024Z,348
2017-05-23T03:33:06.143Z,356
2017-05-23T03:33:32.253Z,372
2017-05-23T03:33:58.405Z,380
2017-05-23T03:34:24.585Z,392
2017-05-23T03:34:50.675Z,404
2017-05-23T03:35:16.797Z,420
2017-05-23T03:35:42.933Z,432
2017-05-23T03:36:09.036Z,444
2017-05-23T03:36:35.168Z,456
2017-05-23T03:37:01.306Z,468
2017-05-23T03:37:27.428Z,484
2017-05-23T03:37:53.519Z,496
2017-05-23T03:38:19.679Z,508
2017-05-23T03:38:45.780Z,528
2017-05-23T03:39:11.947Z,540
2017-05-23T03:39:38.102Z,556
2017-05-23T03:40:04.234Z,572
2017-05-23T03:40:30.322Z,588
2017-05-23T03:40:56.423Z,604
2017-05-23T03:41:22.587Z,620
2017-05-23T03:41:48.675Z,644
2017-05-23T03:42:14.801Z,664
2017-05-23T03:42:40.936Z,680
2017-05-23T03:43:07.084Z,704
2017-05-23T03:43:33.176Z,724
2017-05-23T03:43:59.315Z,744
2017-05-23T03:44:25.439Z,764
2017-05-23T03:44:51.529Z,792
2017-05-23T03:45:17.689Z,816
2017-05-23T03:45:43.845Z,844
2017-05-23T03:46:09.941Z,876
2017-05-23T03:46:36.038Z,904
2017-05-23T03:47:02.152Z,936
2017-05-23T03:47:28.266Z,968
2017-05-23T03:47:54.418Z,1000
2017-05-23T03:48:20.608Z,1024
2017-05-23T03:48:46.743Z,1052
2017-05-23T03:49:12.844Z,1076
2017-05-23T03:49:39.007Z,1100
2017-05-23T03:50:05.135Z,1120
2017-05-23T03:50:31.242Z,1144
2017-05-23T03:50:57.337Z,1164
2017-05-23T03:51:23.464Z,1180
2017-05-23T03:51:49.553Z,1196
2017-05-23T03:52:15.713Z,1212
2017-05-23T03:52:41.814Z,1224
2017-05-23T03:53:07.979Z,1232
2017-05-23T03:53:34.135Z,1244
2017-05-23T03:54:00.271Z,1252
2017-05-23T03:54:26.383Z,1264
2017-05-23T03:54:52.483Z,1276
2017-05-23T03:55:18.598Z,1284
2017-05-23T03:55:44.691Z,1300
2017-05-23T03:56:10.816Z,1312
2017-05-23T03:56:37.319Z,1328
2017-05-23T03:57:03.446Z,1340
2017-05-23T03:57:29.584Z,1360
2017-05-23T03:57:55.696Z,1380
2017-05-23T03:58:21.848Z,1404
2017-05-23T03:58:48.047Z,1424
2017-05-23T03:59:14.091Z,1452
2017-05-23T03:59:40.214Z,1484
2017-05-23T04:00:06.377Z,1512
2017-05-23T04:00:32.471Z,1548
2017-05-23T04:00:58.587Z,1584
2017-05-23T04:01:24.733Z,1616
2017-05-23T04:01:50.858Z,1652
2017-05-23T04:02:16.962Z,1692
2017-05-23T04:02:43.053Z,1728
2017-05-23T04:03:09.202Z,1772
2017-05-23T04:03:35.338Z,1816
2017-05-23T04:04:01.461Z,1860
2017-05-23T04:04:27.580Z,1908
2017-05-23T04:04:53.720Z,1948
2017-05-23T04:05:19.845Z,1988
2017-05-23T04:05:45.936Z,2036
2017-05-23T04:06:12.067Z,2080
2017-05-23T04:06:38.198Z,2128
2017-05-23T04:07:04.340Z,2180
2017-05-23T04:07:30.474Z,2228
2017-05-23T04:07:56.617Z,2276
2017-05-23T04:08:22.784Z,2320
2017-05-23T04:08:48.912Z,2360
2017-05-23T04:09:15.020Z,2400
2017-05-23T04:09:41.156Z,2448
2017-05-23T04:10:07.285Z,2488
2017-05-23T04:10:33.381Z,2528
2017-05-23T04:10:59.484Z,2560
2017-05-23T04:11:25.620Z,2596
2017-05-23T04:11:51.732Z,2628
2017-05-23T04:12:17.885Z,2648
2017-05-23T04:12:43.993Z,2660
2017-05-23T04:13:10.139Z,2672
2017-05-23T04:13:36.301Z,2684
2017-05-23T04:14:02.417Z,2692
2017-05-23T04:14:28.549Z,2700
2017-05-23T04:14:54.682Z,2708
2017-05-23T04:15:20.793Z,2712
2017-05-23T04:15:46.894Z,2724
2017-05-23T04:16:13.000Z,2736
2017-05-23T04:16:39.092Z,2752
2017-05-23T04:17:05.215Z,2772
2017-05-23T04:17:31.380Z,2788
2017-05-23T04:17:57.533Z,2812
2017-05-23T04:18:23.671Z,2844
2017-05-23T04:18:49.827Z,2892
2017-05-23T04:19:15.930Z,2944
2017-05-23T04:19:42.066Z,3012
2017-05-23T04:20:08.211Z,3088
2017-05-23T04:20:34.311Z,3168
2017-05-23T04:21:00.415Z,3252
2017-05-23T04:21:26.507Z,3340
2017-05-23T04:21:52.597Z,3440
2017-05-23T04:22:18.706Z,3528
2017-05-23T04:22:44.804Z,3620
2017-05-23T04:23:10.970Z,3700
2017-05-23T04:23:37.103Z,3776
2017-05-23T04:24:03.203Z,3840
2017-05-23T04:24:29.370Z,3896
2017-05-23T04:24:55.528Z,3940
2017-05-23T04:25:21.663Z,3984
2017-05-23T04:25:47.752Z,4020
2017-05-23T04:26:13.854Z,4052
2017-05-23T04:26:39.961Z,4088
2017-05-23T04:27:06.051Z,4120
2017-05-23T04:27:32.173Z,4140
2017-05-23T04:27:58.309Z,4160
2017-05-23T04:28:24.403Z,4176
2017-05-23T04:28:50.522Z,4200
2017-05-23T04:29:16.648Z,4236
2017-05-23T04:29:42.802Z,4272
2017-05-23T04:30:08.957Z,4292
2017-05-23T04:30:35.075Z,4308
2017-05-23T04:31:01.173Z,4308
2017-05-23T04:31:27.282Z,4312
2017-05-23T04:31:53.377Z,4312
2017-05-23T04:32:19.496Z,4320
2017-05-23T04:32:45.635Z,4332
2017-05-23T04:33:11.789Z,4348
2017-05-23T04:33:37.933Z,4376
2017-05-23T04:34:04.116Z,4408
2017-05-23T04:34:30.242Z,4436
2017-05-23T04:34:56.385Z,4460
2017-05-23T04:35:22.541Z,4484
2017-05-23T04:35:48.684Z,4512
2017-05-23T04:36:14.824Z,4540
2017-05-23T04:36:40.923Z,4572
2017-05-23T04:37:07.014Z,4620
2017-05-23T04:37:33.145Z,4680
2017-05-23T04:37:59.302Z,4748
2017-05-23T04:38:25.420Z,4804
2017-05-23T04:38:51.577Z,4836
2017-05-23T04:39:17.684Z,4860
2017-05-23T04:39:43.797Z,4944
2017-05-23T04:40:09.897Z,5028
2017-05-23T04:40:36.003Z,5112
2017-05-23T04:41:02.093Z,5240
2017-05-23T04:41:28.224Z,5352
2017-05-23T04:41:54.337Z,5412
2017-05-23T04:42:20.442Z,5496
2017-05-23T04:42:46.577Z,5548
2017-05-23T04:43:12.712Z,5584
2017-05-23T04:43:38.840Z,5572
2017-05-23T04:44:04.977Z,5576
2017-05-23T04:44:31.117Z,5648
2017-05-23T04:44:57.265Z,5840
2017-05-23T04:45:23.400Z,6192
2017-05-23T04:45:49.497Z,6500
2017-05-23T04:46:15.612Z,6736
2017-05-23T04:46:41.739Z,6892
2017-05-23T04:47:07.890Z,6868
2017-05-23T04:47:34.052Z,6992
2017-05-23T04:48:00.169Z,7184
2017-05-23T04:48:26.297Z,7316
2017-05-23T04:48:52.458Z,7464
2017-05-23T04:49:18.617Z,7568
2017-05-23T04:49:44.750Z,7676
2017-05-23T04:50:10.858Z,7780
2017-05-23T04:50:36.958Z,7872
2017-05-23T04:51:03.049Z,7976
2017-05-23T04:51:29.212Z,8088
2017-05-23T04:51:55.340Z,8212
2017-05-23T04:52:21.485Z,8348
2017-05-23T04:52:47.583Z,8480
2017-05-23T04:53:13.675Z,8604
2017-05-23T04:53:39.840Z,8720
2017-05-23T04:54:05.993Z,8816
2017-05-23T04:54:32.110Z,8888
2017-05-23T04:54:58.267Z,8928
2017-05-23T04:55:24.399Z,8944
2017-05-23T04:55:50.488Z,8924
2017-05-23T04:56:16.591Z,8860
2017-05-23T04:56:42.699Z,8752
2017-05-23T04:57:08.787Z,8644
2017-05-23T04:57:34.914Z,8564
2017-05-23T04:58:01.039Z,8492
2017-05-23T04:58:27.175Z,8460
2017-05-23T04:58:53.330Z,8416
2017-05-23T04:59:19.473Z,8308
2017-05-23T04:59:45.577Z,8236
2017-05-23T05:00:11.713Z,8008
2017-05-23T05:00:37.828Z,7840
2017-05-23T05:01:03.929Z,7860
2017-05-23T05:01:30.066Z,7784
2017-05-23T05:01:56.158Z,7524
2017-05-23T05:02:22.285Z,7396
2017-05-23T05:02:48.393Z,7416
2017-05-23T05:03:14.513Z,7460
2017-05-23T05:03:40.649Z,7384
2017-05-23T05:04:06.764Z,7276
2017-05-23T05:04:32.889Z,7148
2017-05-23T05:04:59.027Z,6884
2017-05-23T05:05:25.119Z,6612
2017-05-23T05:05:51.217Z,6408
2017-05-23T05:06:17.351Z,6432
2017-05-23T05:06:43.476Z,6496
2017-05-23T05:07:09.592Z,6564
2017-05-23T05:07:35.703Z,6620
2017-05-23T05:08:01.828Z,6668
2017-05-23T05:08:27.946Z,6788
2017-05-23T05:08:54.106Z,6780
2017-05-23T05:09:20.237Z,6808
2017-05-23T05:09:46.376Z,6956
2017-05-23T05:10:12.481Z,6948
2017-05-23T05:10:38.616Z,6956
2017-05-23T05:11:04.704Z,6904
2017-05-23T05:11:30.829Z,6848
2017-05-23T05:11:56.992Z,6768
2017-05-23T05:12:23.086Z,6600
2017-05-23T05:12:49.186Z,6604
2017-05-23T05:13:15.321Z,6392
2017-05-23T05:13:41.441Z,6128
2017-05-23T05:14:07.558Z,5964
2017-05-23T05:14:33.662Z,5744
2017-05-23T05:14:59.813Z,5660
2017-05-23T05:15:25.920Z,5648
2017-05-23T05:15:52.011Z,5768
2017-05-23T05:16:18.112Z,5688
2017-05-23T05:16:44.222Z,5748
2017-05-23T05:17:10.317Z,5888
2017-05-23T05:17:36.486Z,6068
2017-05-23T05:18:02.650Z,6276
2017-05-23T05:18:28.833Z,6500
2017-05-23T05:18:54.974Z,6744
2017-05-23T05:19:21.109Z,6984
2017-05-23T05:19:47.269Z,7232
2017-05-23T05:20:13.417Z,7468
2017-05-23T05:20:39.511Z,7680
2017-05-23T05:21:05.605Z,7884
2017-05-23T05:21:31.771Z,8136
2017-05-23T05:21:57.898Z,8200
2017-05-23T05:22:23.988Z,8160
2017-05-23T05:22:50.096Z,8232
2017-05-23T05:23:16.226Z,8468
2017-05-23T05:23:42.319Z,8716
2017-05-23T05:24:08.473Z,8812
2017-05-23T05:24:34.637Z,8900
2017-05-23T05:25:00.754Z,8928
2017-05-23T05:25:26.856Z,8952
2017-05-23T05:25:52.941Z,8972
2017-05-23T05:26:19.047Z,8996
2017-05-23T05:26:45.175Z,9020
2017-05-23T05:27:11.268Z,9056
2017-05-23T05:27:37.399Z,9088
2017-05-23T05:28:03.561Z,9116
2017-05-23T05:28:29.657Z,9160
2017-05-23T05:28:55.783Z,9200
2017-05-23T05:29:21.887Z,9244
2017-05-23T05:29:48.009Z,9272
2017-05-23T05:30:14.133Z,9304
2017-05-23T05:30:40.238Z,9320
2017-05-23T05:31:06.360Z,9352
2017-05-23T05:31:32.469Z,9396
2017-05-23T05:31:58.581Z,9436
2017-05-23T05:32:24.710Z,9460
2017-05-23T05:32:50.844Z,9464
2017-05-23T05:33:16.964Z,9488
2017-05-23T05:33:43.090Z,9492
2017-05-23T05:34:09.264Z,9488
2017-05-23T05:34:35.406Z,9504
2017-05-23T05:35:01.522Z,9452
2017-05-23T05:35:27.632Z,9256
2017-05-23T05:35:53.761Z,9152
2017-05-23T05:36:19.852Z,9108
2017-05-23T05:36:45.960Z,9268
2017-05-23T05:37:12.081Z,9480
2017-05-23T05:37:38.218Z,9692
2017-05-23T05:38:04.365Z,9920
2017-05-23T05:38:30.482Z,10180
2017-05-23T05:38:56.650Z,10440
2017-05-23T05:39:22.775Z,10708
2017-05-23T05:39:48.915Z,10952
2017-05-23T05:40:15.050Z,11160
2017-05-23T05:40:41.149Z,11320
2017-05-23T05:41:07.241Z,11420
2017-05-23T05:41:33.402Z,11484
2017-05-23T05:41:59.509Z,11500
2017-05-23T05:42:25.606Z,11492
2017-05-23T05:42:51.733Z,11476
2017-05-23T05:43:17.849Z,11444
2017-05-23T05:43:43.978Z,11412
2017-05-23T05:44:10.107Z,11320
2017-05-23T05:44:36.200Z,11180
2017-05-23T05:45:02.306Z,11012
2017-05-23T05:45:28.440Z,10820
2017-05-23T05:45:54.557Z,10568
2017-05-23T05:46:20.656Z,10252
2017-05-23T05:46:46.763Z,10220
2017-05-23T05:47:12.853Z,10408
2017-05-23T05:47:38.953Z,10348
2017-05-23T05:48:05.105Z,10152
2017-05-23T05:48:31.209Z,9664
2017-05-23T05:48:57.372Z,9496
2017-05-23T05:49:23.488Z,9540
2017-05-23T05:49:49.587Z,9516
2017-05-23T05:50:15.725Z,9540
2017-05-23T05:50:41.841Z,9592
2017-05-23T05:51:07.962Z,9696
2017-05-23T05:51:34.072Z,9884
2017-05-23T05:52:00.171Z,9960
2017-05-23T05:52:26.285Z,10380
2017-05-23T05:52:52.397Z,10372
2017-05-23T05:53:18.494Z,10428
2017-05-23T05:53:44.614Z,10256
2017-05-23T05:54:10.747Z,10016
2017-05-23T05:54:36.904Z,9860
2017-05-23T05:55:02.995Z,10308
2017-05-23T05:55:29.126Z,10488
2017-05-23T05:55:55.234Z,10176
2017-05-23T05:56:21.346Z,10256
2017-05-23T05:56:47.472Z,10036
2017-05-23T05:57:13.580Z,9892
2017-05-23T05:57:39.675Z,10200
2017-05-23T05:58:05.822Z,10608
2017-05-23T05:58:31.931Z,10844
2017-05-23T05:58:58.084Z,10836
2017-05-23T05:59:24.190Z,10660
2017-05-23T05:59:50.282Z,10872
2017-05-23T06:00:16.386Z,11008
2017-05-23T06:00:42.493Z,11604
2017-05-23T06:01:08.585Z,11592
2017-05-23T06:01:34.731Z,11816
2017-05-23T06:02:00.839Z,12028
2017-05-23T06:02:26.962Z,12200
2017-05-23T06:02:53.054Z,12464
2017-05-23T06:03:19.247Z,12612
2017-05-23T06:03:45.372Z,12648
2017-05-23T06:04:11.465Z,12564
2017-05-23T06:04:37.623Z,12368
2017-05-23T06:05:03.719Z,12088
2017-05-23T06:05:29.855Z,11760
2017-05-23T06:05:55.952Z,11376
2017-05-23T06:06:22.046Z,10912
2017-05-23T06:06:48.156Z,10336